sensor_id;sensor_type;location;lat;lon;timestamp;P1;durP1;ratioP1;P2;durP2;ratioP2
36925;SDS011;22842;48.610;11.612;2022-10-16T03:04:07;5.07;;;2.03;;
36925;SDS011;22842;48.610;11.612;2022-10-16T03:06:35;5.43;;;2.40;;
36925;SDS011;22842;48.610;11.612;2022-10-16T03:09:03;5.90;;;2.42;;
36925;SDS011;22842;48.610;11.612;2022-10-16T03:11:30;11.45;;;2.67;;
36925;SDS011;22842;48.610;11.612;2022-10-16T03:13:58;7.75;;;2.83;;
36925;SDS011;22842;48.610;11.612;2022-10-16T03:16:25;16.10;;;3.65;;
36925;SDS011;22842;48.610;11.612;2022-10-16T03:18:53;5.13;;;1.90;;
36925;SDS011;22842;48.610;11.612;2022-10-16T03:21:20;2.78;;;2.20;;
36925;SDS011;22842;48.610;11.612;2022-10-16T03:23:48;4.15;;;2.13;;
36925;SDS011;22842;48.610;11.612;2022-10-16T03:26:15;3.75;;;2.30;;
36925;SDS011;22842;48.610;11.612;2022-10-16T03:28:42;5.20;;;2.53;;
36925;SDS011;22842;48.610;11.612;2022-10-16T03:31:10;3.80;;;2.25;;
36925;SDS011;22842;48.610;11.612;2022-10-16T03:33:37;5.65;;;2.17;;
36925;SDS011;22842;48.610;11.612;2022-10-16T03:36:05;2.58;;;1.83;;
36925;SDS011;22842;48.610;11.612;2022-10-16T03:38:32;5.43;;;1.83;;
36925;SDS011;22842;48.610;11.612;2022-10-16T03:41:00;5.68;;;1.80;;
36925;SDS011;22842;48.610;11.612;2022-10-16T03:43:27;4.38;;;2.05;;
36925;SDS011;22842;48.610;11.612;2022-10-16T03:45:55;3.63;;;1.83;;
36925;SDS011;22842;48.610;11.612;2022-10-16T03:48:22;4.80;;;1.98;;
36925;SDS011;22842;48.610;11.612;2022-10-16T03:50:50;4.07;;;2.30;;
36925;SDS011;22842;48.610;11.612;2022-10-16T03:53:17;3.70;;;2.03;;
36925;SDS011;22842;48.610;11.612;2022-10-16T03:55:45;5.20;;;2.22;;
36925;SDS011;22842;48.610;11.612;2022-10-16T03:58:13;3.40;;;2.28;;
36925;SDS011;22842;48.610;11.612;2022-10-16T04:00:41;4.43;;;2.30;;
36925;SDS011;22842;48.610;11.612;2022-10-16T04:03:09;3.55;;;2.22;;
36925;SDS011;22842;48.610;11.612;2022-10-16T04:05:37;4.57;;;1.95;;
36925;SDS011;22842;48.610;11.612;2022-10-16T04:08:05;8.77;;;1.83;;
36925;SDS011;22842;48.610;11.612;2022-10-16T04:10:32;7.50;;;2.00;;
36925;SDS011;22842;48.610;11.612;2022-10-16T04:13:00;2.30;;;1.95;;
36925;SDS011;22842;48.610;11.612;2022-10-16T04:15:27;4.43;;;1.95;;
36925;SDS011;22842;48.610;11.612;2022-10-16T04:17:54;8.15;;;1.95;;
36925;SDS011;22842;48.610;11.612;2022-10-16T04:20:22;3.45;;;1.92;;
36925;SDS011;22842;48.610;11.612;2022-10-16T04:22:49;3.08;;;1.67;;
36925;SDS011;22842;48.610;11.612;2022-10-16T04:25:17;3.63;;;2.00;;
36925;SDS011;22842;48.610;11.612;2022-10-16T04:27:44;4.70;;;2.05;;
36925;SDS011;22842;48.610;11.612;2022-10-16T04:30:11;5.00;;;1.98;;
36925;SDS011;22842;48.610;11.612;2022-10-16T04:32:40;2.50;;;1.85;;
36925;SDS011;22842;48.610;11.612;2022-10-16T04:35:08;2.95;;;1.90;;
36925;SDS011;22842;48.610;11.612;2022-10-16T04:37:35;4.38;;;1.80;;
36925;SDS011;22842;48.610;11.612;2022-10-16T04:40:03;7.75;;;2.20;;
36925;SDS011;22842;48.610;11.612;2022-10-16T04:42:31;5.85;;;1.95;;
36925;SDS011;22842;48.610;11.612;2022-10-16T04:44:58;5.60;;;2.03;;
36925;SDS011;22842;48.610;11.612;2022-10-16T04:47:25;5.47;;;1.92;;
36925;SDS011;22842;48.610;11.612;2022-10-16T04:49:53;9.00;;;2.25;;
36925;SDS011;22842;48.610;11.612;2022-10-16T04:52:21;12.65;;;2.10;;
36925;SDS011;22842;48.610;11.612;2022-10-16T04:54:50;7.53;;;2.10;;
36925;SDS011;22842;48.610;11.612;2022-10-16T04:57:18;5.57;;;1.80;;
36925;SDS011;22842;48.610;11.612;2022-10-16T04:59:46;4.15;;;2.00;;
36925;SDS011;22842;48.610;11.612;2022-10-16T05:02:13;9.82;;;2.13;;
36925;SDS011;22842;48.610;11.612;2022-10-16T05:04:40;4.60;;;1.77;;
36925;SDS011;22842;48.610;11.612;2022-10-16T05:07:08;4.55;;;1.95;;
36925;SDS011;22842;48.610;11.612;2022-10-16T05:09:35;3.13;;;1.48;;
36925;SDS011;22842;48.610;11.612;2022-10-16T05:12:03;6.65;;;2.05;;
36925;SDS011;22842;48.610;11.612;2022-10-16T05:14:30;3.75;;;1.98;;
36925;SDS011;22842;48.610;11.612;2022-10-16T05:16:59;2.65;;;1.67;;
36925;SDS011;22842;48.610;11.612;2022-10-16T05:19:27;7.25;;;2.25;;
36925;SDS011;22842;48.610;11.612;2022-10-16T05:21:54;2.40;;;1.80;;
36925;SDS011;22842;48.610;11.612;2022-10-16T05:24:22;9.20;;;1.77;;
36925;SDS011;22842;48.610;11.612;2022-10-16T05:26:49;7.28;;;2.00;;
36925;SDS011;22842;48.610;11.612;2022-10-16T05:29:17;2.38;;;1.80;;
36925;SDS011;22842;48.610;11.612;2022-10-16T05:31:44;1.92;;;1.60;;
36925;SDS011;22842;48.610;11.612;2022-10-16T05:34:12;3.97;;;1.85;;
36925;SDS011;22842;48.610;11.612;2022-10-16T05:36:40;3.03;;;1.75;;
36925;SDS011;22842;48.610;11.612;2022-10-16T05:39:07;7.97;;;2.83;;
36925;SDS011;22842;48.610;11.612;2022-10-16T05:41:35;6.90;;;2.20;;
36925;SDS011;22842;48.610;11.612;2022-10-16T05:44:06;6.22;;;1.98;;
36925;SDS011;22842;48.610;11.612;2022-10-16T05:46:33;6.38;;;1.90;;
36925;SDS011;22842;48.610;11.612;2022-10-16T05:49:01;3.90;;;1.98;;
36925;SDS011;22842;48.610;11.612;2022-10-16T05:51:28;5.60;;;2.10;;
36925;SDS011;22842;48.610;11.612;2022-10-16T05:53:56;2.67;;;1.58;;
36925;SDS011;22842;48.610;11.612;2022-10-16T05:56:23;5.18;;;1.90;;
36925;SDS011;22842;48.610;11.612;2022-10-16T05:58:51;3.78;;;1.75;;
36925;SDS011;22842;48.610;11.612;2022-10-16T06:01:19;4.78;;;2.10;;
36925;SDS011;22842;48.610;11.612;2022-10-16T06:03:51;7.78;;;2.30;;
36925;SDS011;22842;48.610;11.612;2022-10-16T06:06:20;3.78;;;2.17;;
36925;SDS011;22842;48.610;11.612;2022-10-16T06:08:48;5.85;;;1.92;;
36925;SDS011;22842;48.610;11.612;2022-10-16T06:11:16;2.88;;;1.70;;
36925;SDS011;22842;48.610;11.612;2022-10-16T06:13:44;3.15;;;1.90;;
36925;SDS011;22842;48.610;11.612;2022-10-16T06:16:12;4.60;;;2.22;;
36925;SDS011;22842;48.610;11.612;2022-10-16T06:18:40;8.90;;;2.30;;
36925;SDS011;22842;48.610;11.612;2022-10-16T06:21:09;6.63;;;1.55;;
36925;SDS011;22842;48.610;11.612;2022-10-16T06:23:36;4.68;;;2.03;;
36925;SDS011;22842;48.610;11.612;2022-10-16T06:26:08;3.42;;;1.73;;
36925;SDS011;22842;48.610;11.612;2022-10-16T06:28:36;6.68;;;2.13;;
36925;SDS011;22842;48.610;11.612;2022-10-16T06:31:04;3.42;;;1.80;;
36925;SDS011;22842;48.610;11.612;2022-10-16T06:33:33;3.95;;;1.90;;
36925;SDS011;22842;48.610;11.612;2022-10-16T06:36:02;7.45;;;1.63;;
36925;SDS011;22842;48.610;11.612;2022-10-16T06:38:30;2.90;;;1.58;;
36925;SDS011;22842;48.610;11.612;2022-10-16T06:40:58;1.77;;;1.60;;
36925;SDS011;22842;48.610;11.612;2022-10-16T06:43:25;5.65;;;2.30;;
36925;SDS011;22842;48.610;11.612;2022-10-16T06:45:54;3.58;;;2.00;;
36925;SDS011;22842;48.610;11.612;2022-10-16T06:48:22;4.22;;;2.17;;
36925;SDS011;22842;48.610;11.612;2022-10-16T06:51:00;2.40;;;1.40;;
36925;SDS011;22842;48.610;11.612;2022-10-16T06:53:28;1.90;;;1.40;;
36925;SDS011;22842;48.610;11.612;2022-10-16T06:58:35;2.17;;;1.40;;
36925;SDS011;22842;48.610;11.612;2022-10-16T07:01:03;6.07;;;1.50;;
36925;SDS011;22842;48.610;11.612;2022-10-16T07:03:31;8.48;;;1.88;;
36925;SDS011;22842;48.610;11.612;2022-10-16T07:06:02;4.05;;;1.67;;
36925;SDS011;22842;48.610;11.612;2022-10-16T07:08:31;2.55;;;1.50;;
36925;SDS011;22842;48.610;11.612;2022-10-16T07:10:59;3.85;;;1.48;;
36925;SDS011;22842;48.610;11.612;2022-10-16T07:13:27;2.42;;;1.27;;
36925;SDS011;22842;48.610;11.612;2022-10-16T07:15:54;2.40;;;1.65;;
36925;SDS011;22842;48.610;11.612;2022-10-16T07:18:22;3.38;;;1.60;;
36925;SDS011;22842;48.610;11.612;2022-10-16T07:20:52;2.95;;;1.25;;
36925;SDS011;22842;48.610;11.612;2022-10-16T07:23:20;5.30;;;1.58;;
36925;SDS011;22842;48.610;11.612;2022-10-16T07:25:53;2.17;;;1.48;;
36925;SDS011;22842;48.610;11.612;2022-10-16T07:28:21;1.30;;;1.20;;
36925;SDS011;22842;48.610;11.612;2022-10-16T07:30:48;2.83;;;1.45;;
36925;SDS011;22842;48.610;11.612;2022-10-16T07:33:16;3.67;;;1.60;;
36925;SDS011;22842;48.610;11.612;2022-10-16T07:35:50;5.15;;;1.70;;
36925;SDS011;22842;48.610;11.612;2022-10-16T07:38:18;4.45;;;2.05;;
36925;SDS011;22842;48.610;11.612;2022-10-16T07:40:46;7.00;;;1.90;;
36925;SDS011;22842;48.610;11.612;2022-10-16T07:43:13;5.28;;;1.60;;
36925;SDS011;22842;48.610;11.612;2022-10-16T07:45:48;2.03;;;1.60;;
36925;SDS011;22842;48.610;11.612;2022-10-16T07:48:21;2.55;;;1.55;;
36925;SDS011;22842;48.610;11.612;2022-10-16T07:50:49;2.47;;;1.98;;
36925;SDS011;22842;48.610;11.612;2022-10-16T07:53:16;3.35;;;1.70;;
36925;SDS011;22842;48.610;11.612;2022-10-16T07:55:47;5.63;;;1.83;;
36925;SDS011;22842;48.610;11.612;2022-10-16T07:58:15;3.47;;;1.65;;
36925;SDS011;22842;48.610;11.612;2022-10-16T08:00:42;4.03;;;1.83;;
36925;SDS011;22842;48.610;11.612;2022-10-16T08:03:09;5.78;;;1.77;;
36925;SDS011;22842;48.610;11.612;2022-10-16T08:05:37;3.83;;;1.42;;
36925;SDS011;22842;48.610;11.612;2022-10-16T08:08:04;5.05;;;1.50;;
36925;SDS011;22842;48.610;11.612;2022-10-16T08:10:32;2.28;;;1.35;;
36925;SDS011;22842;48.610;11.612;2022-10-16T08:13:01;3.50;;;1.70;;
36925;SDS011;22842;48.610;11.612;2022-10-16T08:15:28;6.85;;;1.90;;
36925;SDS011;22842;48.610;11.612;2022-10-16T08:18:03;3.92;;;1.50;;
36925;SDS011;22842;48.610;11.612;2022-10-16T08:20:31;3.70;;;1.73;;
36925;SDS011;22842;48.610;11.612;2022-10-16T08:22:59;6.15;;;1.52;;
36925;SDS011;22842;48.610;11.612;2022-10-16T08:25:27;2.70;;;1.70;;
36925;SDS011;22842;48.610;11.612;2022-10-16T08:27:55;4.35;;;1.50;;
36925;SDS011;22842;48.610;11.612;2022-10-16T08:30:23;6.25;;;1.60;;
36925;SDS011;22842;48.610;11.612;2022-10-16T08:32:51;3.67;;;1.58;;
36925;SDS011;22842;48.610;11.612;2022-10-16T08:35:18;2.67;;;1.63;;
36925;SDS011;22842;48.610;11.612;2022-10-16T08:37:46;3.67;;;1.67;;
36925;SDS011;22842;48.610;11.612;2022-10-16T08:40:17;4.57;;;1.58;;
36925;SDS011;22842;48.610;11.612;2022-10-16T08:42:49;5.07;;;1.90;;
36925;SDS011;22842;48.610;11.612;2022-10-16T08:45:34;2.50;;;1.88;;
36925;SDS011;22842;48.610;11.612;2022-10-16T08:48:11;5.43;;;1.88;;
36925;SDS011;22842;48.610;11.612;2022-10-16T08:50:41;3.05;;;1.98;;
36925;SDS011;22842;48.610;11.612;2022-10-16T08:53:14;2.15;;;1.55;;
36925;SDS011;22842;48.610;11.612;2022-10-16T08:58:10;5.28;;;1.92;;
36925;SDS011;22842;48.610;11.612;2022-10-16T09:00:39;5.55;;;1.70;;
36925;SDS011;22842;48.610;11.612;2022-10-16T09:03:11;2.00;;;1.52;;
36925;SDS011;22842;48.610;11.612;2022-10-16T09:13:43;2.58;;;1.70;;
36925;SDS011;22842;48.610;11.612;2022-10-16T09:16:19;4.03;;;1.92;;
36925;SDS011;22842;48.610;11.612;2022-10-16T09:21:39;3.00;;;1.80;;
36925;SDS011;22842;48.610;11.612;2022-10-16T09:26:41;5.07;;;1.50;;
36925;SDS011;22842;48.610;11.612;2022-10-16T09:29:12;6.75;;;1.58;;
36925;SDS011;22842;48.610;11.612;2022-10-16T09:31:40;3.13;;;1.88;;
36925;SDS011;22842;48.610;11.612;2022-10-16T09:36:47;4.32;;;1.63;;
36925;SDS011;22842;48.610;11.612;2022-10-16T09:39:14;1.77;;;1.27;;
36925;SDS011;22842;48.610;11.612;2022-10-16T09:41:42;4.60;;;1.50;;
36925;SDS011;22842;48.610;11.612;2022-10-16T09:44:23;2.15;;;1.83;;
36925;SDS011;22842;48.610;11.612;2022-10-16T09:47:05;1.67;;;1.38;;
36925;SDS011;22842;48.610;11.612;2022-10-16T09:49:33;5.35;;;1.48;;
36925;SDS011;22842;48.610;11.612;2022-10-16T09:52:14;7.68;;;2.28;;
36925;SDS011;22842;48.610;11.612;2022-10-16T09:54:54;2.75;;;1.60;;
36925;SDS011;22842;48.610;11.612;2022-10-16T09:57:22;3.25;;;1.65;;
36925;SDS011;22842;48.610;11.612;2022-10-16T09:59:51;2.30;;;1.60;;
36925;SDS011;22842;48.610;11.612;2022-10-16T10:02:19;7.53;;;1.50;;
36925;SDS011;22842;48.610;11.612;2022-10-16T10:04:48;4.50;;;1.67;;
36925;SDS011;22842;48.610;11.612;2022-10-16T10:07:17;4.38;;;1.60;;
36925;SDS011;22842;48.610;11.612;2022-10-16T10:09:45;1.75;;;1.45;;
36925;SDS011;22842;48.610;11.612;2022-10-16T10:12:20;2.15;;;1.45;;
36925;SDS011;22842;48.610;11.612;2022-10-16T10:14:53;4.43;;;1.50;;
36925;SDS011;22842;48.610;11.612;2022-10-16T10:17:24;1.63;;;1.23;;
36925;SDS011;22842;48.610;11.612;2022-10-16T10:19:55;3.38;;;1.70;;
36925;SDS011;22842;48.610;11.612;2022-10-16T10:22:25;2.42;;;1.35;;
36925;SDS011;22842;48.610;11.612;2022-10-16T10:27:39;8.23;;;2.00;;
36925;SDS011;22842;48.610;11.612;2022-10-16T10:30:29;1.60;;;1.25;;
36925;SDS011;22842;48.610;11.612;2022-10-16T10:45:43;4.25;;;1.23;;
36925;SDS011;22842;48.610;11.612;2022-10-16T10:50:49;3.90;;;1.23;;
36925;SDS011;22842;48.610;11.612;2022-10-16T10:56:07;3.40;;;1.33;;
36925;SDS011;22842;48.610;11.612;2022-10-16T11:01:11;4.20;;;1.52;;
36925;SDS011;22842;48.610;11.612;2022-10-16T11:08:53;4.40;;;1.50;;
36925;SDS011;22842;48.610;11.612;2022-10-16T11:11:31;4.70;;;1.70;;
36925;SDS011;22842;48.610;11.612;2022-10-16T11:14:03;2.58;;;1.60;;
36925;SDS011;22842;48.610;11.612;2022-10-16T11:16:32;3.72;;;1.67;;
36925;SDS011;22842;48.610;11.612;2022-10-16T11:19:10;2.10;;;1.55;;
36925;SDS011;22842;48.610;11.612;2022-10-16T11:21:41;2.80;;;1.52;;
36925;SDS011;22842;48.610;11.612;2022-10-16T11:24:15;2.63;;;1.30;;
36925;SDS011;22842;48.610;11.612;2022-10-16T11:26:45;6.10;;;1.60;;
36925;SDS011;22842;48.610;11.612;2022-10-16T11:29:16;3.53;;;1.35;;
36925;SDS011;22842;48.610;11.612;2022-10-16T11:31:47;4.03;;;1.70;;
36925;SDS011;22842;48.610;11.612;2022-10-16T11:34:22;3.30;;;1.33;;
36925;SDS011;22842;48.610;11.612;2022-10-16T11:39:21;3.28;;;1.40;;
36925;SDS011;22842;48.610;11.612;2022-10-16T11:55:36;4.45;;;1.52;;
36925;SDS011;22842;48.610;11.612;2022-10-16T12:08:22;2.38;;;1.27;;
36925;SDS011;22842;48.610;11.612;2022-10-16T12:10:49;5.50;;;1.30;;
36925;SDS011;22842;48.610;11.612;2022-10-16T12:16:20;4.05;;;1.38;;
36925;SDS011;22842;48.610;11.612;2022-10-16T12:18:48;5.50;;;1.40;;
36925;SDS011;22842;48.610;11.612;2022-10-16T12:21:16;3.83;;;1.10;;
36925;SDS011;22842;48.610;11.612;2022-10-16T12:31:46;2.70;;;1.30;;
36925;SDS011;22842;48.610;11.612;2022-10-16T12:34:37;2.22;;;1.60;;
36925;SDS011;22842;48.610;11.612;2022-10-16T12:37:10;8.73;;;1.70;;
36925;SDS011;22842;48.610;11.612;2022-10-16T12:39:38;3.58;;;1.20;;
36925;SDS011;22842;48.610;11.612;2022-10-16T12:42:18;6.88;;;1.85;;
36925;SDS011;22842;48.610;11.612;2022-10-16T12:44:46;6.05;;;1.40;;
36925;SDS011;22842;48.610;11.612;2022-10-16T12:47:22;6.50;;;1.42;;
36925;SDS011;22842;48.610;11.612;2022-10-16T12:49:53;2.90;;;1.08;;
36925;SDS011;22842;48.610;11.612;2022-10-16T12:52:28;1.90;;;1.08;;
36925;SDS011;22842;48.610;11.612;2022-10-16T12:54:56;3.65;;;0.93;;
36925;SDS011;22842;48.610;11.612;2022-10-16T12:57:32;2.42;;;1.33;;
36925;SDS011;22842;48.610;11.612;2022-10-16T13:00:20;5.13;;;1.20;;
36925;SDS011;22842;48.610;11.612;2022-10-16T13:26:20;1.42;;;1.17;;
36925;SDS011;22842;48.610;11.612;2022-10-16T13:28:49;3.47;;;1.05;;
36925;SDS011;22842;48.610;11.612;2022-10-16T13:31:20;1.75;;;0.93;;
36925;SDS011;22842;48.610;11.612;2022-10-16T13:33:49;1.67;;;0.88;;
36925;SDS011;22842;48.610;11.612;2022-10-16T13:36:33;1.52;;;0.98;;
36925;SDS011;22842;48.610;11.612;2022-10-16T13:41:38;1.13;;;0.82;;
36925;SDS011;22842;48.610;11.612;2022-10-16T13:44:07;3.17;;;1.00;;
36925;SDS011;22842;48.610;11.612;2022-10-16T13:46:38;2.22;;;1.10;;
36925;SDS011;22842;48.610;11.612;2022-10-16T13:49:11;2.58;;;1.30;;
36925;SDS011;22842;48.610;11.612;2022-10-16T13:51:38;8.13;;;1.00;;
36925;SDS011;22842;48.610;11.612;2022-10-16T13:54:07;4.50;;;1.27;;
36925;SDS011;22842;48.610;11.612;2022-10-16T13:56:36;5.00;;;1.05;;
36925;SDS011;22842;48.610;11.612;2022-10-16T13:59:06;4.60;;;1.63;;
36925;SDS011;22842;48.610;11.612;2022-10-16T14:01:34;1.30;;;0.82;;
36925;SDS011;22842;48.610;11.612;2022-10-16T14:04:06;2.75;;;1.00;;
36925;SDS011;22842;48.610;11.612;2022-10-16T14:06:34;6.45;;;1.23;;
36925;SDS011;22842;48.610;11.612;2022-10-16T14:09:09;4.00;;;1.30;;
36925;SDS011;22842;48.610;11.612;2022-10-16T14:11:45;2.00;;;0.85;;
36925;SDS011;22842;48.610;11.612;2022-10-16T14:14:13;6.30;;;0.90;;
36925;SDS011;22842;48.610;11.612;2022-10-16T14:16:41;8.00;;;1.15;;
36925;SDS011;22842;48.610;11.612;2022-10-16T14:19:15;2.80;;;1.00;;
36925;SDS011;22842;48.610;11.612;2022-10-16T14:21:44;10.57;;;0.93;;
36925;SDS011;22842;48.610;11.612;2022-10-16T14:24:12;6.25;;;1.05;;
36925;SDS011;22842;48.610;11.612;2022-10-16T14:26:41;2.75;;;1.30;;
36925;SDS011;22842;48.610;11.612;2022-10-16T14:29:19;4.32;;;1.00;;
36925;SDS011;22842;48.610;11.612;2022-10-16T14:34:33;3.33;;;1.02;;
36925;SDS011;22842;48.610;11.612;2022-10-16T14:37:01;3.08;;;0.98;;
36925;SDS011;22842;48.610;11.612;2022-10-16T14:39:33;4.78;;;0.95;;
36925;SDS011;22842;48.610;11.612;2022-10-16T14:42:00;8.35;;;1.25;;
36925;SDS011;22842;48.610;11.612;2022-10-16T14:44:29;5.43;;;0.90;;
36925;SDS011;22842;48.610;11.612;2022-10-16T14:46:58;3.33;;;1.10;;
36925;SDS011;22842;48.610;11.612;2022-10-16T14:49:25;2.45;;;1.15;;
36925;SDS011;22842;48.610;11.612;2022-10-16T14:51:54;6.55;;;1.30;;
36925;SDS011;22842;48.610;11.612;2022-10-16T14:54:21;4.85;;;0.93;;
36925;SDS011;22842;48.610;11.612;2022-10-16T14:56:56;7.03;;;1.52;;
36925;SDS011;22842;48.610;11.612;2022-10-16T14:59:32;6.30;;;1.55;;
36925;SDS011;22842;48.610;11.612;2022-10-16T15:02:02;7.82;;;1.23;;
36925;SDS011;22842;48.610;11.612;2022-10-16T15:04:35;7.57;;;0.98;;
36925;SDS011;22842;48.610;11.612;2022-10-16T15:07:03;7.97;;;1.00;;
36925;SDS011;22842;48.610;11.612;2022-10-16T15:09:30;4.15;;;1.10;;
36925;SDS011;22842;48.610;11.612;2022-10-16T15:11:57;7.82;;;1.10;;
36925;SDS011;22842;48.610;11.612;2022-10-16T15:14:25;2.38;;;1.20;;
36925;SDS011;22842;48.610;11.612;2022-10-16T15:16:52;8.57;;;1.20;;
36925;SDS011;22842;48.610;11.612;2022-10-16T15:19:19;7.07;;;1.40;;
36925;SDS011;22842;48.610;11.612;2022-10-16T15:21:46;8.15;;;1.17;;
36925;SDS011;22842;48.610;11.612;2022-10-16T15:24:15;1.65;;;1.02;;
36925;SDS011;22842;48.610;11.612;2022-10-16T15:26:46;8.07;;;1.17;;
36925;SDS011;22842;48.610;11.612;2022-10-16T15:29:15;4.47;;;1.17;;
36925;SDS011;22842;48.610;11.612;2022-10-16T15:31:42;2.05;;;1.20;;
36925;SDS011;22842;48.610;11.612;2022-10-16T15:34:09;4.05;;;1.10;;
36925;SDS011;22842;48.610;11.612;2022-10-16T15:36:37;5.60;;;1.27;;
36925;SDS011;22842;48.610;11.612;2022-10-16T15:39:06;1.75;;;1.15;;
36925;SDS011;22842;48.610;11.612;2022-10-16T15:41:37;2.50;;;1.20;;
36925;SDS011;22842;48.610;11.612;2022-10-16T15:44:09;5.10;;;1.77;;
36925;SDS011;22842;48.610;11.612;2022-10-16T15:46:37;2.10;;;1.50;;
36925;SDS011;22842;48.610;11.612;2022-10-16T15:49:04;7.80;;;1.55;;
36925;SDS011;22842;48.610;11.612;2022-10-16T15:51:31;3.38;;;1.52;;
36925;SDS011;22842;48.610;11.612;2022-10-16T15:54:00;1.92;;;1.65;;
36925;SDS011;22842;48.610;11.612;2022-10-16T15:56:28;7.38;;;2.05;;
36925;SDS011;22842;48.610;11.612;2022-10-16T15:58:59;12.15;;;1.90;;
36925;SDS011;22842;48.610;11.612;2022-10-16T16:01:28;11.15;;;2.03;;
36925;SDS011;22842;48.610;11.612;2022-10-16T16:03:55;9.55;;;2.42;;
36925;SDS011;22842;48.610;11.612;2022-10-16T16:06:23;4.32;;;1.83;;
36925;SDS011;22842;48.610;11.612;2022-10-16T16:08:50;6.10;;;2.00;;
36925;SDS011;22842;48.610;11.612;2022-10-16T16:11:18;2.90;;;1.60;;
36925;SDS011;22842;48.610;11.612;2022-10-16T16:13:45;7.65;;;2.10;;
36925;SDS011;22842;48.610;11.612;2022-10-16T16:16:14;7.50;;;1.67;;
36925;SDS011;22842;48.610;11.612;2022-10-16T16:18:42;8.55;;;1.95;;
36925;SDS011;22842;48.610;11.612;2022-10-16T16:21:10;4.20;;;1.65;;
36925;SDS011;22842;48.610;11.612;2022-10-16T16:23:37;5.60;;;1.77;;
36925;SDS011;22842;48.610;11.612;2022-10-16T16:28:41;2.35;;;1.42;;
36925;SDS011;22842;48.610;11.612;2022-10-16T16:31:09;5.22;;;1.80;;
36925;SDS011;22842;48.610;11.612;2022-10-16T16:33:36;3.40;;;1.80;;
36925;SDS011;22842;48.610;11.612;2022-10-16T16:36:04;6.93;;;2.08;;
36925;SDS011;22842;48.610;11.612;2022-10-16T16:38:38;8.40;;;2.28;;
36925;SDS011;22842;48.610;11.612;2022-10-16T16:41:15;6.85;;;1.95;;
36925;SDS011;22842;48.610;11.612;2022-10-16T16:43:43;12.68;;;2.50;;
36925;SDS011;22842;48.610;11.612;2022-10-16T16:46:11;3.65;;;2.30;;
36925;SDS011;22842;48.610;11.612;2022-10-16T16:48:38;8.30;;;2.47;;
36925;SDS011;22842;48.610;11.612;2022-10-16T16:51:07;3.63;;;2.22;;
36925;SDS011;22842;48.610;11.612;2022-10-16T16:53:35;10.70;;;2.72;;
36925;SDS011;22842;48.610;11.612;2022-10-16T16:56:03;6.03;;;2.40;;
36925;SDS011;22842;48.610;11.612;2022-10-16T16:58:31;7.70;;;2.50;;
36925;SDS011;22842;48.610;11.612;2022-10-16T17:00:59;13.45;;;3.17;;
36925;SDS011;22842;48.610;11.612;2022-10-16T17:03:45;4.82;;;2.40;;
36925;SDS011;22842;48.610;11.612;2022-10-16T17:06:16;12.73;;;2.53;;
36925;SDS011;22842;48.610;11.612;2022-10-16T17:08:46;4.28;;;2.40;;
36925;SDS011;22842;48.610;11.612;2022-10-16T17:11:18;6.20;;;2.95;;
36925;SDS011;22842;48.610;11.612;2022-10-16T17:13:46;12.68;;;3.00;;
36925;SDS011;22842;48.610;11.612;2022-10-16T17:16:19;5.13;;;2.45;;
36925;SDS011;22842;48.610;11.612;2022-10-16T17:18:47;3.55;;;1.65;;
36925;SDS011;22842;48.610;11.612;2022-10-16T17:21:15;4.78;;;1.60;;
36925;SDS011;22842;48.610;11.612;2022-10-16T17:23:42;6.97;;;2.88;;
36925;SDS011;22842;48.610;11.612;2022-10-16T17:26:10;6.28;;;2.47;;
36925;SDS011;22842;48.610;11.612;2022-10-16T17:28:38;2.97;;;1.75;;
36925;SDS011;22842;48.610;11.612;2022-10-16T17:31:17;6.60;;;2.20;;
36925;SDS011;22842;48.610;11.612;2022-10-16T17:33:45;6.25;;;1.85;;
36925;SDS011;22842;48.610;11.612;2022-10-16T17:36:12;7.25;;;2.30;;
36925;SDS011;22842;48.610;11.612;2022-10-16T17:38:40;6.28;;;2.30;;
36925;SDS011;22842;48.610;11.612;2022-10-16T17:41:09;8.07;;;2.90;;
36925;SDS011;22842;48.610;11.612;2022-10-16T17:43:37;12.30;;;2.65;;
36925;SDS011;22842;48.610;11.612;2022-10-16T17:46:05;7.38;;;3.25;;
36925;SDS011;22842;48.610;11.612;2022-10-16T17:48:39;14.15;;;2.78;;
36925;SDS011;22842;48.610;11.612;2022-10-16T17:53:34;16.30;;;2.72;;
36925;SDS011;22842;48.610;11.612;2022-10-16T17:56:11;10.38;;;2.42;;
36925;SDS011;22842;48.610;11.612;2022-10-16T17:58:39;9.32;;;2.60;;
36925;SDS011;22842;48.610;11.612;2022-10-16T18:03:40;8.02;;;2.83;;
36925;SDS011;22842;48.610;11.612;2022-10-16T18:06:07;5.53;;;2.95;;
36925;SDS011;22842;48.610;11.612;2022-10-16T18:08:34;9.43;;;2.88;;
36925;SDS011;22842;48.610;11.612;2022-10-16T18:11:02;5.20;;;2.35;;
36925;SDS011;22842;48.610;11.612;2022-10-16T18:13:29;5.05;;;2.55;;
36925;SDS011;22842;48.610;11.612;2022-10-16T18:16:01;8.07;;;2.53;;
36925;SDS011;22842;48.610;11.612;2022-10-16T18:18:28;10.88;;;3.00;;
36925;SDS011;22842;48.610;11.612;2022-10-16T18:20:59;8.63;;;2.72;;
36925;SDS011;22842;48.610;11.612;2022-10-16T18:23:27;9.32;;;3.45;;
36925;SDS011;22842;48.610;11.612;2022-10-16T18:25:54;7.68;;;3.60;;
36925;SDS011;22842;48.610;11.612;2022-10-16T18:28:22;10.60;;;3.08;;
36925;SDS011;22842;48.610;11.612;2022-10-16T18:30:59;8.00;;;2.83;;
36925;SDS011;22842;48.610;11.612;2022-10-16T18:33:27;5.15;;;3.45;;
36925;SDS011;22842;48.610;11.612;2022-10-16T18:36:03;11.07;;;3.75;;
36925;SDS011;22842;48.610;11.612;2022-10-16T18:38:31;7.32;;;3.55;;
36925;SDS011;22842;48.610;11.612;2022-10-16T18:40:58;9.18;;;4.10;;
36925;SDS011;22842;48.610;11.612;2022-10-16T18:43:34;7.20;;;4.03;;
36925;SDS011;22842;48.610;11.612;2022-10-16T18:46:12;12.85;;;3.75;;
36925;SDS011;22842;48.610;11.612;2022-10-16T18:48:40;6.38;;;3.60;;
36925;SDS011;22842;48.610;11.612;2022-10-16T18:51:09;12.77;;;4.05;;
36925;SDS011;22842;48.610;11.612;2022-10-16T18:53:37;14.98;;;4.78;;
36925;SDS011;22842;48.610;11.612;2022-10-16T18:56:05;8.85;;;4.20;;
36925;SDS011;22842;48.610;11.612;2022-10-16T18:58:33;6.85;;;3.97;;
36925;SDS011;22842;48.610;11.612;2022-10-16T19:01:04;17.88;;;5.00;;
36925;SDS011;22842;48.610;11.612;2022-10-16T19:03:32;11.77;;;6.38;;
36925;SDS011;22842;48.610;11.612;2022-10-16T19:06:02;13.75;;;6.05;;
36925;SDS011;22842;48.610;11.612;2022-10-16T19:08:30;13.38;;;5.43;;
36925;SDS011;22842;48.610;11.612;2022-10-16T19:11:02;13.55;;;5.25;;
36925;SDS011;22842;48.610;11.612;2022-10-16T19:13:30;7.65;;;4.35;;
36925;SDS011;22842;48.610;11.612;2022-10-16T19:15:57;8.75;;;3.78;;
36925;SDS011;22842;48.610;11.612;2022-10-16T19:18:44;7.03;;;3.90;;
36925;SDS011;22842;48.610;11.612;2022-10-16T19:21:12;8.48;;;3.67;;
36925;SDS011;22842;48.610;11.612;2022-10-16T19:23:40;5.97;;;3.00;;
36925;SDS011;22842;48.610;11.612;2022-10-16T19:26:09;4.75;;;2.80;;
36925;SDS011;22842;48.610;11.612;2022-10-16T19:28:36;5.68;;;2.70;;
36925;SDS011;22842;48.610;11.612;2022-10-16T19:31:04;8.82;;;2.60;;
36925;SDS011;22842;48.610;11.612;2022-10-16T19:33:33;7.22;;;2.53;;
36925;SDS011;22842;48.610;11.612;2022-10-16T19:38:34;4.07;;;2.30;;
36925;SDS011;22842;48.610;11.612;2022-10-16T19:41:05;2.92;;;2.45;;
36925;SDS011;22842;48.610;11.612;2022-10-16T19:43:33;6.63;;;2.80;;
36925;SDS011;22842;48.610;11.612;2022-10-16T19:46:06;6.90;;;2.50;;
36925;SDS011;22842;48.610;11.612;2022-10-16T19:48:34;10.10;;;2.73;;
36925;SDS011;22842;48.610;11.612;2022-10-16T19:51:02;5.65;;;2.22;;
36925;SDS011;22842;48.610;11.612;2022-10-16T19:53:29;6.57;;;2.72;;
36925;SDS011;22842;48.610;11.612;2022-10-16T19:55:57;10.45;;;2.50;;